Celebrity Galaxy — 9HJH9 — position and weather

sailwx.info

Track history (hours):
 
Tides and Currents Weather Stations Pressure Air Temp Water Temp Dewpoint Dewpoint Depression Visibility Wind Speed Wind Dir Waves Ship Positions

Celebrity Galaxy

Last reported at 2017-Jun-26 06:51 UTC. Time now 2017-Jun-26 10:37 UTC.
Position N 55°27' E 006°29'.

Length 262 m; draft 8.5 m.

Type: Passenger vessel. MMSI: 249051000.

Date/timePositionNaut miles runAvg speedWind from/ knotsBaromVisibWave heightAir tempDewpointWater temp
2017-Jun-26 06:51N 55°27' E 006°29'617.7
2017-Jun-26 06:30N 55°21' E 006°33'917.8
2017-Jun-26 06:00N 55°13' E 006°38'917.9
2017-Jun-26 05:30N 55°04' E 006°43'918.0
2017-Jun-26 05:00N 54°56' E 006°51'918.2
2017-Jun-26 04:30N 54°49' E 007°00'918.6
2017-Jun-26 04:00N 54°41' E 007°09'918.5
2017-Jun-26 03:30N 54°33' E 007°18'4018.4
2017-Jun-26 01:21N 54°03' E 008°01'617.3
2017-Jun-26 00:59N 54°01' E 008°11'714.4
2017-Jun-26 00:30N 53°59' E 008°23'816.6
2017-Jun-26 00:00N 53°58' E 008°36'714.0
2017-Jun-25 23:30N 53°52' E 008°44'713.9
2017-Jun-25 23:01N 53°51' E 008°55'714.8
2017-Jun-25 22:30N 53°53' E 009°07'611.7
2017-Jun-25 22:01N 53°52' E 009°17'815.1
2017-Jun-25 21:30N 53°46' E 009°24'612.6
2017-Jun-25 21:00N 53°41' E 009°30'611.3
2017-Jun-25 20:31N 53°36' E 009°36'612.1
2017-Jun-25 20:00N 53°34' E 009°45'510.5
2017-Jun-25 19:30N 53°32' E 009°54'2 4.5
2017-Jun-25 18:59N 53°32' E 009°58'0 0.0
2017-Jun-25 18:29N 53°32' E 009°58'0 0.0
2017-Jun-25 17:59N 53°32' E 009°58'0 0.0
2017-Jun-25 17:29N 53°32' E 009°58'0 0.0
2017-Jun-25 16:59N 53°32' E 009°58'0 0.0
2017-Jun-25 16:29N 53°32' E 009°58'0 0.0
2017-Jun-25 15:59N 53°32' E 009°58'0 0.0
2017-Jun-25 15:29N 53°32' E 009°58'0 0.0
2017-Jun-25 14:59N 53°32' E 009°58'0 0.0
2017-Jun-25 14:29N 53°32' E 009°58'0 0.0
2017-Jun-25 13:29N 53°32' E 009°58'0 0.0
2017-Jun-25 12:59N 53°32' E 009°58'0 0.0
2017-Jun-25 12:29N 53°32' E 009°58'0 0.0
2017-Jun-25 11:59N 53°32' E 009°58'0 0.0
2017-Jun-25 11:29N 53°32' E 009°58'0 0.0
2017-Jun-25 10:59N 53°32' E 009°58'0 0.0
2017-Jun-25 10:29N 53°32' E 009°58'0 0.0
2017-Jun-25 09:59N 53°32' E 009°58'0 0.0
2017-Jun-25 09:29N 53°32' E 009°58'0 0.0
2017-Jun-25 08:59N 53°32' E 009°58'0 0.0
2017-Jun-25 08:29N 53°32' E 009°58'0 0.0
2017-Jun-25 07:59N 53°32' E 009°58'0 0.0
2017-Jun-25 07:29N 53°32' E 009°58'0 0.0
2017-Jun-25 06:59N 53°32' E 009°58'0 0.0
2017-Jun-25 06:29N 53°32' E 009°58'0 0.0
2017-Jun-25 05:59N 53°32' E 009°58'0 0.0
2017-Jun-25 05:29N 53°32' E 009°58'0 0.0
2017-Jun-25 04:59N 53°32' E 009°58'0 0.0
2017-Jun-25 04:29N 53°32' E 009°58'0 0.1
2017-Jun-25 04:00N 53°32' E 009°58'1 1.5
2017-Jun-25 03:31N 53°32' E 009°57'4 7.1
2017-Jun-25 03:00N 53°33' E 009°51'5 9.9
2017-Jun-25 02:30N 53°34' E 009°43'713.6
2017-Jun-25 02:00N 53°37' E 009°33'713.2
2017-Jun-25 01:30N 53°43' E 009°28'714.9
2017-Jun-25 01:00N 53°50' E 009°22'815.4
2017-Jun-25 00:30N 53°53' E 009°10'713.8
2017-Jun-25 00:00N 53°51' E 008°58'815.0
2017-Jun-24 23:30N 53°51' E 008°46'611.1
2017-Jun-24 23:00N 53°55' E 008°40'917.4
2017-Jun-24 22:30N 53°59' E 008°26'816.2
2017-Jun-24 22:00N 53°59' E 008°13'714.0
2017-Jun-24 21:30N 54°00' E 008°01'714.9
2017-Jun-24 21:00N 54°04' E 007°50'44116.7
2017-Jun-23 18:32N 58°50' W 002°18'019.2
2017-Jun-23 18:30N 58°51' W 002°18'1119.3
2017-Jun-23 17:56N 58°58' W 002°34'819.2
2017-Jun-23 17:30N 59°00' W 002°49'5 9.3
2017-Jun-23 17:00N 59°00' W 002°58'0 0.4
2017-Jun-23 16:29N 59°00' W 002°59'0 0.0
2017-Jun-23 15:59N 59°00' W 002°59'0 0.0
2017-Jun-23 15:29N 59°00' W 002°59'0 0.0
2017-Jun-23 14:59N 59°00' W 002°59'0 0.0
2017-Jun-23 13:59N 59°00' W 002°59'0 0.0
2017-Jun-23 13:29N 59°00' W 002°59'0 0.0
2017-Jun-23 12:59N 59°00' W 002°59'0 0.0
2017-Jun-23 12:29N 59°00' W 002°59'0 0.0
2017-Jun-23 11:59N 59°00' W 002°59'0 0.0
2017-Jun-23 11:29N 59°00' W 002°59'0 0.0
2017-Jun-23 10:59N 59°00' W 002°59'0 0.0
2017-Jun-23 10:29N 59°00' W 002°59'0 0.0
2017-Jun-23 09:59N 59°00' W 002°59'0 0.0
2017-Jun-23 09:29N 59°00' W 002°59'0 0.0
2017-Jun-23 08:59N 59°00' W 002°59'0 0.0
2017-Jun-23 08:29N 59°00' W 002°59'0 0.0
2017-Jun-23 07:59N 59°00' W 002°59'0 0.0
2017-Jun-23 07:29N 59°00' W 002°59'0 0.0
2017-Jun-23 06:56N 59°00' W 002°59'0 0.0
2017-Jun-23 06:29N 59°00' W 002°59'0 0.0
2017-Jun-23 05:59N 59°00' W 002°59'1 2.3
2017-Jun-23 05:30N 59°01' W 002°57'5 9.0
2017-Jun-23 05:00N 59°00' W 002°48'4 8.7
2017-Jun-23 04:30N 59°04' W 002°45'713.9
2017-Jun-23 04:00N 59°10' W 002°52'815.8
2017-Jun-23 03:30N 59°15' W 003°05'916.2
2017-Jun-23 02:57N 59°22' W 003°15'816.7
2017-Jun-23 02:30N 59°28' W 003°24'  
Track history (hours):
 
Tides and Currents Weather Stations Pressure Air Temp Water Temp Dewpoint Dewpoint Depression Visibility Wind Speed Wind Dir Waves Ship Positions

Celebrity Galaxy

Last reported at 2017-Jun-26 06:51 UTC. Time now 2017-Jun-26 10:37 UTC.
Position N 55°27' E 006°29'.

Length 262 m; draft 8.5 m.

Type: Passenger vessel. MMSI: 249051000.

Date/timePositionNaut miles runAvg speedWind from/ knotsBaromVisibWave heightAir tempDewpointWater temp
2017-Jun-26 06:51N 55°27' E 006°29'617.7
2017-Jun-26 06:30N 55°21' E 006°33'917.8
2017-Jun-26 06:00N 55°13' E 006°38'917.9
2017-Jun-26 05:30N 55°04' E 006°43'918.0
2017-Jun-26 05:00N 54°56' E 006°51'918.2
2017-Jun-26 04:30N 54°49' E 007°00'918.6
2017-Jun-26 04:00N 54°41' E 007°09'918.5
2017-Jun-26 03:30N 54°33' E 007°18'4018.4
2017-Jun-26 01:21N 54°03' E 008°01'617.3
2017-Jun-26 00:59N 54°01' E 008°11'714.4
2017-Jun-26 00:30N 53°59' E 008°23'816.6
2017-Jun-26 00:00N 53°58' E 008°36'714.0
2017-Jun-25 23:30N 53°52' E 008°44'713.9
2017-Jun-25 23:01N 53°51' E 008°55'714.8
2017-Jun-25 22:30N 53°53' E 009°07'611.7
2017-Jun-25 22:01N 53°52' E 009°17'815.1
2017-Jun-25 21:30N 53°46' E 009°24'612.6
2017-Jun-25 21:00N 53°41' E 009°30'611.3
2017-Jun-25 20:31N 53°36' E 009°36'612.1
2017-Jun-25 20:00N 53°34' E 009°45'510.5
2017-Jun-25 19:30N 53°32' E 009°54'2 4.5
2017-Jun-25 18:59N 53°32' E 009°58'0 0.0
2017-Jun-25 18:29N 53°32' E 009°58'0 0.0
2017-Jun-25 17:59N 53°32' E 009°58'0 0.0
2017-Jun-25 17:29N 53°32' E 009°58'0 0.0
2017-Jun-25 16:59N 53°32' E 009°58'0 0.0
2017-Jun-25 16:29N 53°32' E 009°58'0 0.0
2017-Jun-25 15:59N 53°32' E 009°58'0 0.0
2017-Jun-25 15:29N 53°32' E 009°58'0 0.0
2017-Jun-25 14:59N 53°32' E 009°58'0 0.0
2017-Jun-25 14:29N 53°32' E 009°58'0 0.0
2017-Jun-25 13:29N 53°32' E 009°58'0 0.0
2017-Jun-25 12:59N 53°32' E 009°58'0 0.0
2017-Jun-25 12:29N 53°32' E 009°58'0 0.0
2017-Jun-25 11:59N 53°32' E 009°58'0 0.0
2017-Jun-25 11:29N 53°32' E 009°58'0 0.0
2017-Jun-25 10:59N 53°32' E 009°58'0 0.0
2017-Jun-25 10:29N 53°32' E 009°58'0 0.0
2017-Jun-25 09:59N 53°32' E 009°58'0 0.0
2017-Jun-25 09:29N 53°32' E 009°58'0 0.0
2017-Jun-25 08:59N 53°32' E 009°58'0 0.0
2017-Jun-25 08:29N 53°32' E 009°58'0 0.0
2017-Jun-25 07:59N 53°32' E 009°58'0 0.0
2017-Jun-25 07:29N 53°32' E 009°58'0 0.0
2017-Jun-25 06:59N 53°32' E 009°58'0 0.0
2017-Jun-25 06:29N 53°32' E 009°58'0 0.0
2017-Jun-25 05:59N 53°32' E 009°58'0 0.0
2017-Jun-25 05:29N 53°32' E 009°58'0 0.0
2017-Jun-25 04:59N 53°32' E 009°58'0 0.0
2017-Jun-25 04:29N 53°32' E 009°58'0 0.1
2017-Jun-25 04:00N 53°32' E 009°58'1 1.5
2017-Jun-25 03:31N 53°32' E 009°57'4 7.1
2017-Jun-25 03:00N 53°33' E 009°51'5 9.9
2017-Jun-25 02:30N 53°34' E 009°43'713.6
2017-Jun-25 02:00N 53°37' E 009°33'713.2
2017-Jun-25 01:30N 53°43' E 009°28'714.9
2017-Jun-25 01:00N 53°50' E 009°22'815.4
2017-Jun-25 00:30N 53°53' E 009°10'713.8
2017-Jun-25 00:00N 53°51' E 008°58'815.0
2017-Jun-24 23:30N 53°51' E 008°46'611.1
2017-Jun-24 23:00N 53°55' E 008°40'917.4
2017-Jun-24 22:30N 53°59' E 008°26'816.2
2017-Jun-24 22:00N 53°59' E 008°13'714.0
2017-Jun-24 21:30N 54°00' E 008°01'714.9
2017-Jun-24 21:00N 54°04' E 007°50'44116.7
2017-Jun-23 18:32N 58°50' W 002°18'019.2
2017-Jun-23 18:30N 58°51' W 002°18'1119.3
2017-Jun-23 17:56N 58°58' W 002°34'819.2
2017-Jun-23 17:30N 59°00' W 002°49'5 9.3
2017-Jun-23 17:00N 59°00' W 002°58'0 0.4
2017-Jun-23 16:29N 59°00' W 002°59'0 0.0
2017-Jun-23 15:59N 59°00' W 002°59'0 0.0
2017-Jun-23 15:29N 59°00' W 002°59'0 0.0
2017-Jun-23 14:59N 59°00' W 002°59'0 0.0
2017-Jun-23 13:59N 59°00' W 002°59'0 0.0
2017-Jun-23 13:29N 59°00' W 002°59'0 0.0
2017-Jun-23 12:59N 59°00' W 002°59'0 0.0
2017-Jun-23 12:29N 59°00' W 002°59'0 0.0
2017-Jun-23 11:59N 59°00' W 002°59'0 0.0
2017-Jun-23 11:29N 59°00' W 002°59'0 0.0
2017-Jun-23 10:59N 59°00' W 002°59'0 0.0
2017-Jun-23 10:29N 59°00' W 002°59'0 0.0
2017-Jun-23 09:59N 59°00' W 002°59'0 0.0
2017-Jun-23 09:29N 59°00' W 002°59'0 0.0
2017-Jun-23 08:59N 59°00' W 002°59'0 0.0
2017-Jun-23 08:29N 59°00' W 002°59'0 0.0
2017-Jun-23 07:59N 59°00' W 002°59'0 0.0
2017-Jun-23 07:29N 59°00' W 002°59'0 0.0
2017-Jun-23 06:56N 59°00' W 002°59'0 0.0
2017-Jun-23 06:29N 59°00' W 002°59'0 0.0
2017-Jun-23 05:59N 59°00' W 002°59'1 2.3
2017-Jun-23 05:30N 59°01' W 002°57'5 9.0
2017-Jun-23 05:00N 59°00' W 002°48'4 8.7
2017-Jun-23 04:30N 59°04' W 002°45'713.9
2017-Jun-23 04:00N 59°10' W 002°52'815.8
2017-Jun-23 03:30N 59°15' W 003°05'916.2
2017-Jun-23 02:57N 59°22' W 003°15'816.7
2017-Jun-23 02:30N 59°28' W 003°24'  

Dump ship's entire track history